Time;durP1;ratioP1;P1;durP2;ratioP2;P2;SDS_P1;SDS_P2;PMS_P1;PMS_P2;Temp;Humidity;BMP_temperature;BMP_pressure;BME280_temperature;BME280_humidity;BME280_pressure;Samples;Min_cycle;Max_cycle;Signal;HPM_P1;HPM_P2
2021/08/12 00:00:39;;;;;;;;;8.75;7.50;;;;;20.40;65.22;101754.28;4981889;28;45482;-79
2021/08/12 00:03:04;;;;;;;;;15.75;14.00;;;;;20.35;64.96;101754.56;4982146;28;45512;-79
2021/08/12 00:05:29;;;;;;;;;14.25;13.25;;;;;20.34;65.20;101751.06;4981024;28;45798;-80
2021/08/12 00:07:55;;;;;;;;;16.25;16.00;;;;;20.33;64.89;101736.00;4982447;28;45577;-78
2021/08/12 00:10:20;;;;;;;;;14.50;14.50;;;;;20.35;65.16;101747.44;4981502;28;45649;-81
2021/08/12 00:12:45;;;;;;;;;14.75;14.00;;;;;20.32;64.92;101752.09;4981216;28;46341;-80
2021/08/12 00:15:11;;;;;;;;;14.50;14.50;;;;;20.33;64.83;101759.16;4981085;28;45400;-77
2021/08/12 00:17:37;;;;;;;;;15.25;13.75;;;;;20.34;64.75;101752.88;4981489;28;45229;-76
2021/08/12 00:20:02;;;;;;;;;14.75;12.00;;;;;20.37;64.87;101747.34;4981217;28;45417;-77
2021/08/12 00:22:28;;;;;;;;;13.75;10.50;;;;;20.37;65.56;101749.16;4981821;28;46450;-77
2021/08/12 00:24:53;;;;;;;;;13.75;12.25;;;;;20.38;64.97;101757.06;4979732;28;45226;-77
2021/08/12 00:27:19;;;;;;;;;17.25;14.50;;;;;20.34;65.32;101745.72;4981656;28;45491;-76
2021/08/12 00:29:44;;;;;;;;;15.25;14.50;;;;;20.30;65.44;101749.50;4982167;28;45277;-77
2021/08/12 00:32:09;;;;;;;;;14.25;13.75;;;;;20.29;65.65;101745.13;4980484;28;45562;-76
2021/08/12 00:34:35;;;;;;;;;14.75;13.75;;;;;20.28;65.48;101745.22;4981802;28;45563;-77
2021/08/12 00:37:02;;;;;;;;;14.50;12.75;;;;;20.24;65.48;101744.53;4980605;28;45498;-77
2021/08/12 00:39:27;;;;;;;;;17.00;13.50;;;;;20.18;65.37;101737.75;4981378;28;45259;-77
2021/08/12 00:41:53;;;;;;;;;17.75;15.25;;;;;20.17;65.72;101736.03;4979271;28;45638;-77
2021/08/12 00:44:19;;;;;;;;;24.75;18.50;;;;;20.15;65.98;101743.25;4980546;28;45792;-77
2021/08/12 00:46:44;;;;;;;;;19.00;15.50;;;;;20.14;65.83;101746.88;4981345;28;45365;-77
2021/08/12 00:49:10;;;;;;;;;23.50;16.50;;;;;20.12;65.77;101746.13;4981150;28;45312;-77
2021/08/12 00:51:39;;;;;;;;;18.00;16.00;;;;;20.09;65.78;101738.25;4981908;28;45462;-76
2021/08/12 00:54:04;;;;;;;;;15.00;15.00;;;;;20.06;66.00;101738.41;4980474;28;45614;-79
2021/08/12 00:56:30;;;;;;;;;19.50;15.25;;;;;20.05;65.90;101728.72;4980109;28;45215;-79
2021/08/12 00:58:55;;;;;;;;;15.50;14.25;;;;;20.01;66.40;101736.88;4962345;28;47144;-78
2021/08/12 01:01:21;;;;;;;;;16.25;15.50;;;;;19.99;66.29;101732.59;4962464;28;47233;-78
2021/08/12 01:03:46;;;;;;;;;16.75;13.25;;;;;19.98;66.16;101730.84;4979594;28;45496;-78
2021/08/12 01:06:17;;;;;;;;;16.75;14.25;;;;;19.93;66.20;101715.13;4980946;28;45971;-78
2021/08/12 01:08:48;;;;;;;;;16.25;14.00;;;;;19.94;66.60;101719.50;4980834;28;45302;-78
2021/08/12 01:11:29;;;;;;;;;16.25;15.75;;;;;19.92;66.51;101726.75;4978936;28;46410;-78
2021/08/12 01:14:15;;;;;;;;;15.00;14.00;;;;;19.90;66.48;101723.31;4980041;28;45272;-78
2021/08/12 01:17:05;;;;;;;;;13.00;12.25;;;;;19.83;66.76;101716.63;4980538;28;45306;-79
2021/08/12 01:20:08;;;;;;;;;16.75;15.00;;;;;19.83;66.68;101721.94;4981733;28;45290;-79
2021/08/12 01:22:46;;;;;;;;;19.25;14.50;;;;;19.79;66.82;101727.44;4969919;28;45465;-79
2021/08/12 01:25:23;;;;;;;;;15.50;12.75;;;;;19.78;67.38;101736.38;4973869;28;45441;-79
2021/08/12 01:27:51;;;;;;;;;14.50;14.50;;;;;19.77;66.92;101731.16;4980534;28;45475;-80
2021/08/12 01:30:20;;;;;;;;;17.50;16.50;;;;;19.76;67.13;101737.41;4979966;28;45456;-80
2021/08/12 01:33:09;;;;;;;;;15.75;14.50;;;;;19.75;66.95;101736.56;4979490;28;46303;-77
2021/08/12 01:35:38;;;;;;;;;14.50;13.75;;;;;19.74;67.12;101733.97;4980382;28;45227;-78
2021/08/12 01:38:09;;;;;;;;;15.50;14.25;;;;;19.71;66.98;101728.81;4981330;28;45317;-79
2021/08/12 01:40:36;;;;;;;;;18.25;14.75;;;;;19.71;67.21;101724.34;4979893;28;45171;-82
2021/08/12 01:43:14;;;;;;;;;18.25;17.00;;;;;19.68;67.20;101728.03;4980466;28;45480;-83
2021/08/12 01:45:40;;;;;;;;;20.25;18.25;;;;;19.67;66.93;101721.00;4980676;28;45322;-81
2021/08/12 01:48:07;;;;;;;;;20.25;15.00;;;;;19.64;67.46;101722.97;4981133;28;45440;-77
2021/08/12 01:50:34;;;;;;;;;14.50;13.75;;;;;19.65;67.12;101732.69;4981536;28;45270;-81
2021/08/12 01:53:02;;;;;;;;;16.00;15.75;;;;;19.62;67.62;101727.53;4979783;28;46460;-82
2021/08/12 01:55:33;;;;;;;;;27.00;19.50;;;;;19.55;67.28;101725.22;4978504;28;45482;-81
2021/08/12 01:57:59;;;;;;;;;23.75;19.00;;;;;19.58;67.64;101728.66;4980265;28;45219;-81
2021/08/12 02:00:28;;;;;;;;;22.25;18.00;;;;;19.57;67.58;101722.47;4979511;28;45548;-80
2021/08/12 02:02:55;;;;;;;;;24.75;19.50;;;;;19.54;67.57;101720.81;4979557;28;45568;-80
2021/08/12 02:05:21;;;;;;;;;20.75;17.25;;;;;19.53;67.40;101729.75;4972007;28;46893;-82
2021/08/12 02:07:48;;;;;;;;;21.75;19.75;;;;;19.54;67.85;101739.50;4979809;28;45472;-76
2021/08/12 05:14:04;;;;;;;;;11.50;10.25;;;;;19.54;68.75;101691.50;4896426;26;46108;-85
2021/08/12 05:16:29;;;;;;;;;13.75;12.25;;;;;19.57;68.83;101701.13;4960880;28;45246;-85
2021/08/12 05:18:54;;;;;;;;;13.25;11.00;;;;;19.62;68.75;101699.06;4962688;28;45282;-91
2021/08/12 05:21:20;;;;;;;;;13.25;11.50;;;;;19.65;68.74;101700.69;4946247;28;47144;-92
2021/08/12 05:23:45;;;;;;;;;14.00;11.50;;;;;19.63;68.17;101690.09;4945268;28;46990;-93
2021/08/12 05:26:10;;;;;;;;;12.50;11.25;;;;;19.64;68.22;101697.16;4946168;28;45914;-92
2021/08/12 05:28:36;;;;;;;;;10.25;9.50;;;;;19.68;68.60;101700.50;4941263;28;46076;-92
2021/08/12 05:31:04;;;;;;;;;15.00;13.00;;;;;19.72;68.77;101703.88;4936922;28;46296;-92
2021/08/12 05:33:30;;;;;;;;;12.25;12.25;;;;;19.70;68.74;101697.78;4962191;28;45275;-81
2021/08/12 05:35:55;;;;;;;;;10.50;10.25;;;;;19.71;68.38;101707.47;4932011;28;45792;-82
2021/08/12 05:38:21;;;;;;;;;12.00;11.25;;;;;19.72;68.36;101702.06;4944137;28;45331;-82
2021/08/12 05:40:46;;;;;;;;;12.75;11.25;;;;;19.73;68.05;101702.94;4959534;28;45435;-82
2021/08/12 05:43:11;;;;;;;;;11.50;11.25;;;;;19.71;68.23;101703.00;4956853;28;46280;-82
2021/08/12 05:45:37;;;;;;;;;14.50;13.25;;;;;19.72;67.42;101704.75;4960405;28;45239;-82
2021/08/12 05:48:02;;;;;;;;;15.50;14.25;;;;;19.68;67.27;101695.16;4961628;28;45383;-83
2021/08/12 05:50:28;;;;;;;;;13.25;12.00;;;;;19.66;67.81;101697.94;4957346;28;45404;-83
2021/08/12 05:52:53;;;;;;;;;15.25;14.25;;;;;19.68;67.67;101695.16;4954546;28;45351;-88
2021/08/12 05:55:18;;;;;;;;;16.50;12.50;;;;;19.67;67.25;101691.66;4953241;28;45874;-82
2021/08/12 05:57:44;;;;;;;;;15.00;14.00;;;;;19.65;67.15;101688.25;4969134;28;45407;-82
2021/08/12 06:00:10;;;;;;;;;12.00;10.50;;;;;19.67;67.32;101693.47;4936554;28;46091;-82
2021/08/12 06:02:35;;;;;;;;;16.50;12.50;;;;;19.64;67.04;101701.63;4961391;28;45446;-82
2021/08/12 06:05:00;;;;;;;;;12.50;12.25;;;;;19.65;67.08;101706.03;4953045;28;45508;-82
2021/08/12 06:07:26;;;;;;;;;14.50;12.25;;;;;19.64;66.83;101707.84;4958991;28;45243;-82
2021/08/12 06:09:52;;;;;;;;;9.25;9.25;;;;;19.68;66.92;101709.38;4957350;28;45498;-83
2021/08/12 06:12:17;;;;;;;;;17.00;12.50;;;;;19.71;66.47;101716.34;4960294;28;46520;-84
2021/08/12 06:14:43;;;;;;;;;12.75;12.25;;;;;19.70;66.82;101719.09;4947081;28;45248;-84
2021/08/12 06:17:08;;;;;;;;;13.50;13.50;;;;;19.66;66.97;101713.06;4948087;28;45428;-84
2021/08/12 06:19:34;;;;;;;;;17.75;14.00;;;;;19.69;66.91;101723.56;4930649;28;46431;-85
2021/08/12 06:21:59;;;;;;;;;16.50;14.00;;;;;19.66;66.96;101715.75;4959999;28;45257;-82
2021/08/12 06:24:24;;;;;;;;;15.25;12.50;;;;;19.70;66.90;101727.97;4948357;28;45176;-82
2021/08/12 06:26:50;;;;;;;;;16.50;14.00;;;;;19.73;66.81;101721.59;4960419;28;45151;-82
2021/08/12 06:29:15;;;;;;;;;12.00;11.00;;;;;19.77;67.00;101724.00;4971452;28;45586;-82
2021/08/12 06:31:40;;;;;;;;;17.00;13.50;;;;;19.78;66.82;101724.84;4965599;28;45127;-82
2021/08/12 06:34:06;;;;;;;;;14.25;12.75;;;;;19.82;67.35;101726.41;4975901;28;45439;-82
2021/08/12 06:36:32;;;;;;;;;13.25;11.50;;;;;19.85;67.27;101720.06;4961228;28;45601;-85
2021/08/12 06:39:01;;;;;;;;;10.75;9.25;;;;;19.94;67.23;101726.66;4974441;28;45869;-82
2021/08/12 06:41:27;;;;;;;;;15.50;12.25;;;;;20.02;67.67;101721.75;4963948;28;46310;-82
2021/08/12 06:43:53;;;;;;;;;13.25;12.25;;;;;20.07;68.18;101718.81;4955471;28;45536;-83
2021/08/12 06:46:18;;;;;;;;;16.25;13.25;;;;;20.17;67.55;101722.69;4955144;28;45212;-83
2021/08/12 06:48:44;;;;;;;;;15.25;12.75;;;;;20.22;66.83;101720.59;4945336;28;45476;-82
2021/08/12 06:51:11;;;;;;;;;13.50;12.25;;;;;20.24;66.74;101716.06;4946284;28;45382;-83
2021/08/12 06:53:36;;;;;;;;;12.50;11.50;;;;;20.34;66.45;101721.69;4949131;28;45624;-84
2021/08/12 06:56:03;;;;;;;;;16.25;15.25;;;;;20.41;65.93;101726.66;4960180;28;45351;-82
2021/08/12 06:58:28;;;;;;;;;17.00;14.75;;;;;20.41;65.61;101719.53;4949421;28;45600;-84
2021/08/12 07:00:53;;;;;;;;;11.25;10.50;;;;;20.43;65.75;101719.41;4967228;28;45371;-84
2021/08/12 07:03:18;;;;;;;;;14.50;13.50;;;;;20.41;65.58;101710.66;4944216;28;45484;-83
2021/08/12 07:05:44;;;;;;;;;18.50;13.25;;;;;20.45;65.82;101706.84;4958371;28;45435;-84
2021/08/12 07:08:09;;;;;;;;;16.50;14.75;;;;;20.48;65.75;101703.97;4945015;28;45295;-83
2021/08/12 07:10:35;;;;;;;;;11.50;11.50;;;;;20.56;65.70;101708.88;4939982;28;46186;-83
2021/08/12 07:13:00;;;;;;;;;14.25;14.25;;;;;20.56;65.42;101698.19;4936422;28;45423;-83
2021/08/12 07:15:26;;;;;;;;;8.00;6.75;;;;;20.61;65.63;101698.78;4957006;28;45778;-83
2021/08/12 07:17:51;;;;;;;;;14.25;11.75;;;;;20.71;65.13;101692.88;4951932;28;45452;-83
2021/08/12 07:20:17;;;;;;;;;13.25;11.75;;;;;20.76;65.02;101702.31;4948568;28;45564;-83
2021/08/12 07:22:42;;;;;;;;;14.75;13.00;;;;;20.83;64.76;101699.25;4950328;28;45297;-83
2021/08/12 07:25:08;;;;;;;;;13.00;12.25;;;;;20.87;65.16;101706.13;4955794;28;45747;-83
2021/08/12 07:27:33;;;;;;;;;14.75;13.75;;;;;20.94;64.91;101706.63;4958607;28;45213;-83
2021/08/12 07:29:59;;;;;;;;;14.00;12.50;;;;;21.04;64.80;101712.28;4962694;28;45204;-83
2021/08/12 07:32:25;;;;;;;;;14.00;11.00;;;;;21.07;64.92;101710.25;4957167;28;45222;-83
2021/08/12 07:34:50;;;;;;;;;12.50;11.75;;;;;21.16;64.51;101718.66;4955853;28;45155;-84
2021/08/12 07:37:15;;;;;;;;;12.50;10.50;;;;;21.19;64.47;101710.44;4946028;28;45170;-83
2021/08/12 07:39:41;;;;;;;;;16.25;13.25;;;;;21.26;64.28;101709.09;4944800;28;46956;-83
2021/08/12 07:42:06;;;;;;;;;8.00;8.00;;;;;21.32;63.76;101708.72;4956673;28;45270;-83
2021/08/12 07:44:32;;;;;;;;;15.75;13.75;;;;;21.35;63.99;101695.16;4925942;28;45252;-83
2021/08/12 07:46:57;;;;;;;;;15.00;12.75;;;;;21.38;64.30;101695.91;4960987;28;46093;-83
2021/08/12 07:49:22;;;;;;;;;16.75;15.00;;;;;21.40;63.51;101689.50;4958488;28;45764;-83
2021/08/12 07:51:48;;;;;;;;;14.25;12.50;;;;;21.42;64.39;101690.28;4954281;28;45448;-83
2021/08/12 07:54:14;;;;;;;;;12.00;9.75;;;;;21.47;64.37;101692.63;4969972;28;45377;-83
2021/08/12 07:56:39;;;;;;;;;11.00;11.00;;;;;21.51;63.89;101694.16;4960763;28;45516;-83
2021/08/12 07:59:05;;;;;;;;;14.25;12.50;;;;;21.56;63.43;101701.88;4968679;28;45435;-83
2021/08/12 08:01:30;;;;;;;;;16.75;14.50;;;;;21.58;63.27;101692.78;4963050;28;45393;-84
2021/08/12 08:03:58;;;;;;;;;11.25;11.25;;;;;21.59;63.47;101691.84;4961921;28;45316;-84
2021/08/12 08:06:24;;;;;;;;;15.00;13.25;;;;;21.64;63.24;101693.34;4955598;28;45480;-83
2021/08/12 08:08:49;;;;;;;;;14.50;13.50;;;;;21.69;63.31;101694.78;4945151;28;45661;-84
2021/08/12 08:11:17;;;;;;;;;14.75;14.75;;;;;21.76;63.37;101699.72;4956340;28;45305;-83
2021/08/12 08:13:42;;;;;;;;;13.50;12.50;;;;;21.77;63.10;101693.41;4949523;28;45358;-84
2021/08/12 08:16:08;;;;;;;;;17.25;14.75;;;;;21.77;62.60;101698.75;4964423;28;45452;-83
2021/08/12 08:18:33;;;;;;;;;15.25;14.25;;;;;21.83;62.93;101697.50;4959614;28;45407;-83
2021/08/12 08:20:58;;;;;;;;;16.75;13.75;;;;;21.89;62.57;101700.66;4939675;28;45394;-83
2021/08/12 08:23:24;;;;;;;;;15.25;13.25;;;;;21.91;62.42;101693.38;4954059;28;45776;-84
2021/08/12 08:25:49;;;;;;;;;17.50;16.75;;;;;21.99;62.47;101695.56;4978375;28;45509;-84
2021/08/12 08:28:15;;;;;;;;;16.00;14.50;;;;;22.01;62.44;101695.44;4943964;28;48517;-83
2021/08/12 08:30:40;;;;;;;;;19.00;14.00;;;;;22.06;62.18;101696.00;4943554;28;45310;-83
2021/08/12 08:33:06;;;;;;;;;12.00;11.75;;;;;22.13;62.32;101693.75;4955714;28;45423;-84
2021/08/12 08:35:34;;;;;;;;;13.00;13.00;;;;;22.16;62.24;101688.19;4947405;28;45588;-83
2021/08/12 08:37:59;;;;;;;;;12.50;12.50;;;;;22.18;62.08;101685.41;4953435;28;45416;-84
2021/08/12 08:40:26;;;;;;;;;13.50;13.00;;;;;22.23;62.33;101688.63;4962127;28;45302;-83
2021/08/12 08:42:51;;;;;;;;;15.25;14.00;;;;;22.25;61.88;101690.25;4945086;28;46072;-84
2021/08/12 08:45:25;;;;;;;;;13.00;13.00;;;;;22.29;62.58;101698.06;4948332;28;47087;-83
2021/08/12 08:47:52;;;;;;;;;14.00;12.00;;;;;22.32;62.04;101687.16;4960908;28;45415;-83
2021/08/12 08:50:19;;;;;;;;;14.00;11.75;;;;;22.35;61.82;101698.50;4962615;28;45417;-83
2021/08/12 08:52:47;;;;;;;;;14.25;14.25;;;;;22.41;61.21;101710.63;4958228;28;45491;-83
2021/08/12 08:55:21;;;;;;;;;15.00;13.00;;;;;22.43;61.33;101706.03;4948640;28;45549;-83
2021/08/12 08:57:52;;;;;;;;;15.50;15.25;;;;;22.46;61.78;101700.47;4958047;28;45468;-83
2021/08/12 09:00:18;;;;;;;;;15.50;14.00;;;;;22.49;61.24;101707.44;4946073;28;45665;-82
2021/08/12 09:02:45;;;;;;;;;15.50;13.25;;;;;22.53;61.00;101710.75;4960027;28;45457;-83
2021/08/12 09:05:10;;;;;;;;;17.25;14.25;;;;;22.58;61.28;101722.00;4949308;28;45542;-83
2021/08/12 09:07:37;;;;;;;;;17.50;16.50;;;;;22.60;61.56;101709.34;4945746;28;46943;-83
2021/08/12 09:10:03;;;;;;;;;11.00;11.00;;;;;22.60;61.16;101715.56;4962146;28;45224;-83
2021/08/12 09:12:30;;;;;;;;;15.50;12.75;;;;;22.65;61.88;101717.94;4954502;28;45482;-83
2021/08/12 09:15:07;;;;;;;;;17.25;14.50;;;;;22.66;61.07;101716.97;4949303;28;45414;-83
2021/08/12 09:17:32;;;;;;;;;16.00;14.50;;;;;22.68;61.27;101717.72;4965425;28;45408;-83
2021/08/12 09:19:59;;;;;;;;;22.25;18.25;;;;;22.76;60.98;101714.53;4961850;28;45485;-83
2021/08/12 09:22:27;;;;;;;;;16.25;14.50;;;;;22.81;60.42;101716.91;4961251;28;45505;-83
2021/08/12 09:24:53;;;;;;;;;16.50;14.25;;;;;22.86;61.02;101709.41;4961961;28;45314;-83
2021/08/12 09:27:22;;;;;;;;;17.25;14.75;;;;;22.92;60.90;101721.50;4961532;28;45467;-83
2021/08/12 09:29:48;;;;;;;;;15.00;13.25;;;;;22.91;60.34;101707.25;4962083;28;45385;-83
2021/08/12 09:32:16;;;;;;;;;15.75;15.25;;;;;22.97;60.43;101711.31;4961869;28;45322;-82
2021/08/12 09:34:44;;;;;;;;;12.25;11.75;;;;;23.03;60.05;101707.34;4961938;28;45342;-83
2021/08/12 09:37:11;;;;;;;;;13.75;13.25;;;;;23.03;60.57;101704.66;4976017;28;45246;-83
2021/08/12 09:39:39;;;;;;;;;16.00;14.00;;;;;23.03;60.65;101701.97;4970156;28;45730;-83
2021/08/12 09:42:05;;;;;;;;;18.25;13.25;;;;;23.03;59.66;101702.84;4961468;28;45436;-82
2021/08/12 09:44:33;;;;;;;;;15.50;13.75;;;;;23.13;60.52;101705.72;4968694;28;45391;-82
2021/08/12 09:47:01;;;;;;;;;18.25;15.50;;;;;23.20;59.78;101699.91;4971096;28;45460;-83
2021/08/12 09:49:39;;;;;;;;;12.00;12.00;;;;;23.28;60.27;101705.56;4971602;28;45569;-84
2021/08/12 09:52:32;;;;;;;;;11.25;11.25;;;;;23.38;60.05;101705.75;4958910;28;45420;-84
2021/08/12 09:55:07;;;;;;;;;17.75;16.75;;;;;23.40;60.25;101693.09;4961421;28;45485;-84
2021/08/12 09:57:35;;;;;;;;;17.25;15.00;;;;;23.47;59.83;101699.72;4955352;28;45469;-84
2021/08/12 10:00:00;;;;;;;;;16.00;13.50;;;;;23.52;59.18;101688.69;4966617;28;45611;-84
2021/08/12 10:02:30;;;;;;;;;12.75;12.75;;;;;23.62;59.76;101691.53;4961328;28;45384;-83
2021/08/12 10:05:22;;;;;;;;;16.50;14.25;;;;;23.74;59.33;101697.81;4969031;28;45239;-83
2021/08/12 10:07:53;;;;;;;;;17.00;13.50;;;;;23.81;59.02;101691.03;4963034;28;45346;-84
2021/08/12 10:10:21;;;;;;;;;16.00;14.75;;;;;23.80;58.56;101678.59;4964799;28;45737;-85
2021/08/12 10:12:49;;;;;;;;;14.00;13.50;;;;;23.88;58.13;101685.22;4963906;28;45433;-85
2021/08/12 10:15:26;;;;;;;;;16.25;14.75;;;;;23.97;58.37;101689.88;4964791;28;45361;-86
2021/08/12 10:17:54;;;;;;;;;16.75;14.25;;;;;24.05;58.24;101687.44;4961132;28;45383;-86
2021/08/12 10:20:27;;;;;;;;;17.75;12.75;;;;;24.12;57.64;101682.47;4960741;28;45721;-85
2021/08/12 10:22:54;;;;;;;;;13.00;12.25;;;;;24.19;57.86;101680.19;4961277;28;45393;-85
2021/08/12 10:25:22;;;;;;;;;15.50;13.75;;;;;24.26;57.36;101683.28;4960503;28;45518;-85
2021/08/12 10:27:50;;;;;;;;;12.50;12.50;;;;;24.33;57.09;101678.28;4960293;28;45401;-84
2021/08/12 10:30:18;;;;;;;;;14.00;13.50;;;;;24.39;57.46;101677.81;4951078;28;45391;-85
2021/08/12 10:32:53;;;;;;;;;10.50;9.00;;;;;24.44;57.03;101681.00;4960942;28;45433;-85
2021/08/12 10:35:18;;;;;;;;;14.25;12.00;;;;;24.50;56.93;101685.88;4967190;28;45339;-85
2021/08/12 10:37:44;;;;;;;;;12.50;12.50;;;;;24.53;56.55;101679.41;4965592;28;46268;-85
2021/08/12 10:40:13;;;;;;;;;11.50;11.25;;;;;24.62;57.23;101683.19;4970502;28;45448;-86
2021/08/12 10:42:43;;;;;;;;;14.75;11.25;;;;;24.72;56.58;101676.13;4961746;28;46644;-85
2021/08/12 10:45:10;;;;;;;;;17.25;13.00;;;;;24.80;56.67;101680.03;4954470;28;45575;-85
2021/08/12 10:47:44;;;;;;;;;14.25;13.00;;;;;24.84;56.63;101666.22;4953463;28;45420;-85
2021/08/12 10:50:26;;;;;;;;;10.75;10.75;;;;;24.94;55.25;101670.88;4971288;28;45609;-85
2021/08/12 10:53:04;;;;;;;;;7.75;6.75;;;;;24.95;55.69;101678.81;4942095;28;45348;-86
2021/08/12 10:55:31;;;;;;;;;11.00;10.75;;;;;24.89;55.07;101667.72;4938324;28;46263;-85
2021/08/12 10:58:18;;;;;;;;;14.00;11.00;;;;;24.86;55.53;101663.44;4949124;28;48247;-85
2021/08/12 11:00:47;;;;;;;;;16.00;12.50;;;;;24.79;55.65;101670.28;4964417;28;45352;-85
2021/08/12 11:03:12;;;;;;;;;10.75;8.75;;;;;24.72;55.90;101683.31;4969760;28;45312;-85
2021/08/12 11:06:03;;;;;;;;;10.75;10.25;;;;;24.69;55.88;101678.22;4962865;28;45574;-85
2021/08/12 11:08:51;;;;;;;;;12.25;9.25;;;;;24.66;55.87;101673.06;4960853;28;47385;-85
2021/08/12 11:11:25;;;;;;;;;14.50;11.00;;;;;24.67;55.84;101670.25;4961834;28;46807;-85
2021/08/12 11:13:56;;;;;;;;;12.00;12.00;;;;;24.64;55.63;101665.16;4962225;28;45325;-85
2021/08/12 11:16:26;;;;;;;;;14.00;14.00;;;;;24.70;54.83;101659.25;4934382;28;46319;-85
2021/08/12 11:18:57;;;;;;;;;9.75;9.75;;;;;24.78;55.01;101655.13;4965426;28;45210;-85
2021/08/12 11:21:29;;;;;;;;;12.75;12.75;;;;;24.86;54.81;101663.44;4976389;28;45520;-85
2021/08/12 11:23:54;;;;;;;;;12.75;12.75;;;;;24.92;54.86;101660.22;4962044;28;45425;-85
2021/08/12 11:26:20;;;;;;;;;9.25;9.25;;;;;24.97;54.94;101657.16;4955104;28;45502;-85
2021/08/12 11:28:51;;;;;;;;;10.25;9.00;;;;;25.01;54.12;101657.81;4949107;28;48283;-85
2021/08/12 11:31:26;;;;;;;;;13.75;11.75;;;;;25.01;54.87;101661.38;4968672;28;45509;-85
2021/08/12 11:33:53;;;;;;;;;11.00;11.00;;;;;24.97;54.21;101650.94;4967410;28;45250;-85
2021/08/12 11:36:29;;;;;;;;;13.00;10.00;;;;;24.97;54.46;101648.25;4959905;28;45365;-85
2021/08/12 11:39:03;;;;;;;;;13.50;10.50;;;;;24.96;54.51;101650.09;4967863;28;46480;-85
2021/08/12 11:41:37;;;;;;;;;10.25;10.25;;;;;24.81;54.38;101649.50;4962630;28;45386;-85
2021/08/12 11:44:08;;;;;;;;;11.75;10.75;;;;;24.71;54.93;101647.56;4972670;28;45487;-85
2021/08/12 11:46:37;;;;;;;;;12.50;11.25;;;;;24.68;54.51;101645.09;4964671;28;45280;-85
2021/08/12 11:49:04;;;;;;;;;11.75;11.75;;;;;24.78;54.44;101652.44;4959903;28;45543;-85
2021/08/12 11:51:34;;;;;;;;;13.25;12.00;;;;;24.82;55.16;101645.81;4960212;28;45818;-86
2021/08/12 11:54:01;;;;;;;;;10.25;9.00;;;;;24.87;53.72;101635.56;4947730;28;45306;-85
2021/08/12 11:56:28;;;;;;;;;12.25;12.00;;;;;25.02;53.40;101643.38;4964691;28;45225;-85
2021/08/12 11:58:56;;;;;;;;;13.75;12.50;;;;;25.15;53.56;101630.66;4959701;28;46401;-85
2021/08/12 12:01:26;;;;;;;;;12.00;10.00;;;;;25.28;54.41;101635.91;4964946;28;45344;-86
2021/08/12 12:04:06;;;;;;;;;12.50;12.00;;;;;25.27;53.28;101644.94;4960597;28;45416;-85
2021/08/12 12:06:35;;;;;;;;;10.75;9.75;;;;;25.14;53.20;101630.78;4943411;28;45623;-85
2021/08/12 12:09:30;;;;;;;;;14.00;12.50;;;;;25.11;53.01;101631.03;4971833;28;45281;-85
2021/08/12 12:12:09;;;;;;;;;13.25;12.00;;;;;25.04;53.85;101633.34;4962380;28;45222;-83
2021/08/12 12:14:41;;;;;;;;;12.75;12.50;;;;;24.95;53.23;101622.34;4967797;28;45353;-85
2021/08/12 12:17:23;;;;;;;;;11.75;11.50;;;;;24.94;53.74;101628.69;4968391;28;45246;-85
2021/08/12 12:20:14;;;;;;;;;10.75;10.75;;;;;24.83;53.61;101643.03;4969964;28;46153;-85
2021/08/12 12:22:55;;;;;;;;;9.00;9.00;;;;;24.63;54.82;101633.00;4960863;28;45600;-85
2021/08/12 12:25:21;;;;;;;;;13.00;13.00;;;;;24.59;54.81;101635.94;4962685;28;45243;-86
2021/08/12 12:27:47;;;;;;;;;13.50;12.75;;;;;24.66;54.42;101630.94;4948962;28;45469;-86
2021/08/12 12:30:14;;;;;;;;;16.75;13.25;;;;;24.64;54.14;101632.91;4962525;28;46048;-85
2021/08/12 12:32:42;;;;;;;;;11.75;10.25;;;;;24.47;54.09;101637.75;4971985;28;45637;-85
2021/08/12 12:35:10;;;;;;;;;10.50;10.50;;;;;24.37;54.62;101639.47;4948614;28;45279;-84
2021/08/12 12:37:39;;;;;;;;;10.75;10.00;;;;;24.30;55.19;101624.81;4942103;28;45310;-85
2021/08/12 12:40:08;;;;;;;;;11.00;11.00;;;;;24.25;54.87;101633.16;4949582;28;48210;-85
2021/08/12 12:42:36;;;;;;;;;15.00;12.00;;;;;24.24;54.56;101620.72;4944876;28;45826;-85
2021/08/12 12:45:07;;;;;;;;;9.25;8.00;;;;;24.42;54.78;101623.81;4969315;28;45166;-85
2021/08/12 12:47:34;;;;;;;;;14.75;12.75;;;;;24.47;54.83;101613.56;4953782;28;45528;-85
2021/08/12 12:50:11;;;;;;;;;15.25;13.00;;;;;24.50;54.75;101607.09;4947079;28;47635;-85
2021/08/12 12:53:00;;;;;;;;;10.00;10.00;;;;;24.55;54.34;101614.78;4951904;28;45239;-85
2021/08/12 12:55:36;;;;;;;;;11.00;11.00;;;;;24.45;54.32;101606.59;4974506;28;45329;-85
2021/08/12 12:58:26;;;;;;;;;10.50;10.25;;;;;24.33;54.62;101613.81;4975942;28;45337;-85
2021/08/12 13:01:06;;;;;;;;;11.75;11.00;;;;;24.20;54.39;101612.03;4961408;28;46468;-85
2021/08/12 13:03:38;;;;;;;;;9.75;9.75;;;;;24.17;54.55;101617.69;4962290;28;45354;-85
2021/08/12 13:06:14;;;;;;;;;12.00;10.50;;;;;24.10;55.10;101613.75;4966744;28;45371;-85
2021/08/12 13:08:52;;;;;;;;;12.75;12.50;;;;;24.04;55.04;101612.41;4955047;28;45453;-85
2021/08/12 13:11:26;;;;;;;;;12.25;12.00;;;;;23.92;54.59;101608.84;4962418;28;46563;-85
2021/08/12 13:13:52;;;;;;;;;13.75;11.25;;;;;23.87;56.01;101605.63;4942662;28;45532;-86
2021/08/12 13:16:36;;;;;;;;;11.75;9.75;;;;;23.91;55.51;101597.22;4967007;28;45290;-85
2021/08/12 13:19:02;;;;;;;;;11.25;11.25;;;;;23.97;55.42;101603.09;4934761;28;46004;-85
2021/08/12 13:21:32;;;;;;;;;11.50;11.00;;;;;23.99;54.97;101607.38;4964924;28;46015;-86
2021/08/12 13:24:01;;;;;;;;;12.75;11.50;;;;;23.97;55.63;101617.38;4968416;28;45181;-85
2021/08/12 13:26:27;;;;;;;;;17.75;12.50;;;;;23.97;55.43;101614.72;4943451;28;45275;-85
2021/08/12 13:29:06;;;;;;;;;11.00;11.00;;;;;24.07;55.21;101603.25;4974090;28;45486;-85
2021/08/12 13:31:43;;;;;;;;;10.50;10.50;;;;;24.14;55.49;101605.34;4974859;28;45591;-85
2021/08/12 13:34:09;;;;;;;;;12.00;12.00;;;;;24.19;54.96;101602.28;4961377;28;45341;-85
2021/08/12 13:36:35;;;;;;;;;12.50;11.00;;;;;24.18;54.75;101611.31;4961868;28;45962;-85
2021/08/12 13:39:02;;;;;;;;;12.75;12.25;;;;;24.12;54.79;101606.44;4944290;28;46331;-86
2021/08/12 13:41:29;;;;;;;;;15.50;10.50;;;;;24.09;55.21;101607.53;4944089;28;47891;-85
2021/08/12 13:43:55;;;;;;;;;8.50;8.50;;;;;24.08;55.52;101610.31;4961335;28;45532;-85
2021/08/12 13:46:21;;;;;;;;;11.50;10.25;;;;;24.13;55.36;101608.13;4945867;28;45548;-85
2021/08/12 13:48:46;;;;;;;;;15.50;11.00;;;;;24.10;55.12;101608.38;4946066;28;45410;-85
2021/08/12 13:51:11;;;;;;;;;12.00;11.00;;;;;24.10;55.25;101605.69;4944076;28;48146;-85
2021/08/12 13:53:37;;;;;;;;;20.00;14.00;;;;;24.08;55.69;101605.81;4972966;28;45238;-85
2021/08/12 13:56:02;;;;;;;;;12.25;10.00;;;;;24.11;55.78;101604.72;4961249;28;45669;-85
2021/08/12 13:58:28;;;;;;;;;12.00;12.00;;;;;24.13;55.31;101602.75;4961433;28;45444;-85
2021/08/12 14:00:53;;;;;;;;;10.75;10.75;;;;;24.19;55.12;101599.63;4956571;28;48393;-77
2021/08/12 14:03:21;;;;;;;;;12.25;10.25;;;;;24.23;55.15;101603.75;4954810;28;45326;-78
2021/08/12 14:05:47;;;;;;;;;12.50;11.00;;;;;24.28;55.70;101606.97;4961514;28;45417;-77
2021/08/12 14:08:15;;;;;;;;;13.00;12.00;;;;;24.31;55.49;101599.66;4961414;28;45281;-77
2021/08/12 14:10:40;;;;;;;;;10.00;10.00;;;;;24.32;55.16;101596.00;4970536;28;45489;-78
2021/08/12 14:13:06;;;;;;;;;12.50;11.25;;;;;24.35;55.09;101590.34;4942783;28;45230;-77
2021/08/12 14:15:32;;;;;;;;;17.50;13.25;;;;;24.38;55.12;101584.75;4944759;28;45294;-77
2021/08/12 14:17:57;;;;;;;;;8.00;8.00;;;;;24.49;55.17;101587.47;4941876;28;45274;-77
2021/08/12 14:20:22;;;;;;;;;10.50;10.50;;;;;24.57;54.69;101588.69;4942666;28;45215;-77